sensor_id;sensor_type;location;lat;lon;timestamp;temperature;humidity
18733;DHT22;9495;51.210;2.934;2022-12-29T00:00:00;14.80;99.90
18733;DHT22;9495;51.210;2.934;2022-12-29T00:02:31;14.80;99.90
18733;DHT22;9495;51.210;2.934;2022-12-29T00:05:00;15.20;99.90
18733;DHT22;9495;51.210;2.934;2022-12-29T00:07:30;15.30;99.90
18733;DHT22;9495;51.210;2.934;2022-12-29T00:09:58;15.40;99.90
18733;DHT22;9495;51.210;2.934;2022-12-29T00:12:26;15.40;99.90
18733;DHT22;9495;51.210;2.934;2022-12-29T00:15:15;15.80;99.90
18733;DHT22;9495;51.210;2.934;2022-12-29T00:18:01;16.20;99.90
18733;DHT22;9495;51.210;2.934;2022-12-29T00:20:33;16.40;99.90
18733;DHT22;9495;51.210;2.934;2022-12-29T00:23:20;16.30;99.90
18733;DHT22;9495;51.210;2.934;2022-12-29T00:26:12;16.50;99.90
18733;DHT22;9495;51.210;2.934;2022-12-29T00:28:59;16.80;99.90
18733;DHT22;9495;51.210;2.934;2022-12-29T00:31:45;16.90;99.90
18733;DHT22;9495;51.210;2.934;2022-12-29T00:34:31;16.80;99.90
18733;DHT22;9495;51.210;2.934;2022-12-29T00:37:17;16.60;99.90
18733;DHT22;9495;51.210;2.934;2022-12-29T00:40:07;16.70;99.90
18733;DHT22;9495;51.210;2.934;2022-12-29T00:42:53;16.40;99.90
18733;DHT22;9495;51.210;2.934;2022-12-29T00:45:40;16.30;99.90
18733;DHT22;9495;51.210;2.934;2022-12-29T00:48:09;16.60;99.90
18733;DHT22;9495;51.210;2.934;2022-12-29T00:50:37;16.70;99.90
18733;DHT22;9495;51.210;2.934;2022-12-29T00:53:05;16.50;99.90
18733;DHT22;9495;51.210;2.934;2022-12-29T00:55:37;16.50;99.90
18733;DHT22;9495;51.210;2.934;2022-12-29T00:58:06;17.00;99.90
18733;DHT22;9495;51.210;2.934;2022-12-29T01:00:34;16.90;99.90
18733;DHT22;9495;51.210;2.934;2022-12-29T01:03:03;16.90;99.90
18733;DHT22;9495;51.210;2.934;2022-12-29T01:05:35;16.90;99.90
18733;DHT22;9495;51.210;2.934;2022-12-29T01:08:04;17.00;99.90
18733;DHT22;9495;51.210;2.934;2022-12-29T01:10:33;16.80;99.90
18733;DHT22;9495;51.210;2.934;2022-12-29T01:13:02;16.80;99.90
18733;DHT22;9495;51.210;2.934;2022-12-29T01:15:30;16.50;99.90
18733;DHT22;9495;51.210;2.934;2022-12-29T01:17:59;16.50;99.90
18733;DHT22;9495;51.210;2.934;2022-12-29T01:20:28;16.40;99.90
18733;DHT22;9495;51.210;2.934;2022-12-29T01:22:56;16.00;99.90
18733;DHT22;9495;51.210;2.934;2022-12-29T01:25:25;15.80;99.90
18733;DHT22;9495;51.210;2.934;2022-12-29T01:27:53;16.00;99.90
18733;DHT22;9495;51.210;2.934;2022-12-29T01:30:23;16.40;99.90
18733;DHT22;9495;51.210;2.934;2022-12-29T01:32:51;16.20;99.90
18733;DHT22;9495;51.210;2.934;2022-12-29T01:35:19;15.80;99.90
18733;DHT22;9495;51.210;2.934;2022-12-29T01:37:48;16.20;99.90
18733;DHT22;9495;51.210;2.934;2022-12-29T01:40:16;16.20;99.90
18733;DHT22;9495;51.210;2.934;2022-12-29T01:42:45;16.00;99.90
18733;DHT22;9495;51.210;2.934;2022-12-29T01:45:14;16.50;99.90
18733;DHT22;9495;51.210;2.934;2022-12-29T01:47:48;16.40;99.90
18733;DHT22;9495;51.210;2.934;2022-12-29T01:50:22;16.70;99.90
18733;DHT22;9495;51.210;2.934;2022-12-29T01:52:55;16.30;99.90
18733;DHT22;9495;51.210;2.934;2022-12-29T01:55:24;16.30;99.90
18733;DHT22;9495;51.210;2.934;2022-12-29T01:57:55;16.10;99.90
18733;DHT22;9495;51.210;2.934;2022-12-29T02:00:25;15.80;99.90
18733;DHT22;9495;51.210;2.934;2022-12-29T02:02:55;16.20;99.90
18733;DHT22;9495;51.210;2.934;2022-12-29T02:05:26;15.80;99.90
18733;DHT22;9495;51.210;2.934;2022-12-29T02:07:55;16.60;99.90
18733;DHT22;9495;51.210;2.934;2022-12-29T02:10:26;16.50;99.90
18733;DHT22;9495;51.210;2.934;2022-12-29T02:12:56;16.10;99.90
18733;DHT22;9495;51.210;2.934;2022-12-29T02:15:32;16.10;99.90
18733;DHT22;9495;51.210;2.934;2022-12-29T02:18:13;15.70;99.90
18733;DHT22;9495;51.210;2.934;2022-12-29T02:30:27;16.40;99.90
18733;DHT22;9495;51.210;2.934;2022-12-29T02:32:59;16.20;99.90
18733;DHT22;9495;51.210;2.934;2022-12-29T02:35:35;16.30;99.90
18733;DHT22;9495;51.210;2.934;2022-12-29T02:38:15;16.40;99.90
18733;DHT22;9495;51.210;2.934;2022-12-29T02:40:52;16.60;99.90
18733;DHT22;9495;51.210;2.934;2022-12-29T02:43:25;16.30;99.90
18733;DHT22;9495;51.210;2.934;2022-12-29T02:45:58;16.00;99.90
18733;DHT22;9495;51.210;2.934;2022-12-29T02:48:31;15.40;99.90
18733;DHT22;9495;51.210;2.934;2022-12-29T02:51:03;16.10;99.90
18733;DHT22;9495;51.210;2.934;2022-12-29T02:53:34;16.20;99.90
18733;DHT22;9495;51.210;2.934;2022-12-29T02:56:21;16.00;99.90
18733;DHT22;9495;51.210;2.934;2022-12-29T02:58:49;16.10;99.90
18733;DHT22;9495;51.210;2.934;2022-12-29T03:01:29;15.90;99.90
18733;DHT22;9495;51.210;2.934;2022-12-29T03:04:13;16.10;99.90
18733;DHT22;9495;51.210;2.934;2022-12-29T03:06:52;16.50;99.90
18733;DHT22;9495;51.210;2.934;2022-12-29T03:09:34;16.20;99.90
18733;DHT22;9495;51.210;2.934;2022-12-29T03:12:14;15.90;99.90
18733;DHT22;9495;51.210;2.934;2022-12-29T03:14:57;16.40;99.90
18733;DHT22;9495;51.210;2.934;2022-12-29T03:17:53;16.50;99.90
18733;DHT22;9495;51.210;2.934;2022-12-29T03:20:26;16.80;99.90
18733;DHT22;9495;51.210;2.934;2022-12-29T03:23:02;16.90;99.90
18733;DHT22;9495;51.210;2.934;2022-12-29T03:25:33;16.20;99.90
18733;DHT22;9495;51.210;2.934;2022-12-29T03:28:05;16.30;99.90
18733;DHT22;9495;51.210;2.934;2022-12-29T03:30:35;16.60;99.90
18733;DHT22;9495;51.210;2.934;2022-12-29T03:33:09;16.60;99.90
18733;DHT22;9495;51.210;2.934;2022-12-29T03:35:40;16.60;99.90
18733;DHT22;9495;51.210;2.934;2022-12-29T03:38:13;16.40;99.90
18733;DHT22;9495;51.210;2.934;2022-12-29T03:40:46;16.40;99.90
18733;DHT22;9495;51.210;2.934;2022-12-29T03:43:16;16.40;99.90
18733;DHT22;9495;51.210;2.934;2022-12-29T03:45:45;16.70;99.90
18733;DHT22;9495;51.210;2.934;2022-12-29T03:48:15;16.50;99.90
18733;DHT22;9495;51.210;2.934;2022-12-29T03:50:44;16.50;99.90
18733;DHT22;9495;51.210;2.934;2022-12-29T03:53:12;16.70;99.90
18733;DHT22;9495;51.210;2.934;2022-12-29T03:55:41;16.40;99.90
18733;DHT22;9495;51.210;2.934;2022-12-29T03:58:09;16.30;99.90
18733;DHT22;9495;51.210;2.934;2022-12-29T04:00:38;16.70;99.90
18733;DHT22;9495;51.210;2.934;2022-12-29T04:03:06;16.50;99.90
18733;DHT22;9495;51.210;2.934;2022-12-29T04:05:36;16.40;99.90
18733;DHT22;9495;51.210;2.934;2022-12-29T04:08:05;16.40;99.90
18733;DHT22;9495;51.210;2.934;2022-12-29T04:10:33;16.80;99.90
18733;DHT22;9495;51.210;2.934;2022-12-29T04:13:02;16.90;99.90
18733;DHT22;9495;51.210;2.934;2022-12-29T04:15:31;16.70;99.90
18733;DHT22;9495;51.210;2.934;2022-12-29T04:17:59;16.30;99.90
18733;DHT22;9495;51.210;2.934;2022-12-29T04:20:27;16.60;99.90
18733;DHT22;9495;51.210;2.934;2022-12-29T04:23:15;17.10;99.90
18733;DHT22;9495;51.210;2.934;2022-12-29T04:25:46;16.90;99.90
18733;DHT22;9495;51.210;2.934;2022-12-29T04:28:15;16.60;99.90
18733;DHT22;9495;51.210;2.934;2022-12-29T04:30:45;16.40;99.90
18733;DHT22;9495;51.210;2.934;2022-12-29T04:33:13;16.10;99.90
18733;DHT22;9495;51.210;2.934;2022-12-29T04:35:45;16.50;99.90
18733;DHT22;9495;51.210;2.934;2022-12-29T04:38:15;16.30;99.90
18733;DHT22;9495;51.210;2.934;2022-12-29T04:40:44;16.40;99.90
18733;DHT22;9495;51.210;2.934;2022-12-29T04:43:13;16.50;99.90
18733;DHT22;9495;51.210;2.934;2022-12-29T04:45:44;16.30;99.90
18733;DHT22;9495;51.210;2.934;2022-12-29T04:48:13;16.70;99.90
18733;DHT22;9495;51.210;2.934;2022-12-29T04:50:43;16.40;99.90
18733;DHT22;9495;51.210;2.934;2022-12-29T04:53:11;16.10;99.90
18733;DHT22;9495;51.210;2.934;2022-12-29T04:55:41;16.40;99.90
18733;DHT22;9495;51.210;2.934;2022-12-29T04:58:09;16.40;99.90
18733;DHT22;9495;51.210;2.934;2022-12-29T05:00:43;16.80;99.90
18733;DHT22;9495;51.210;2.934;2022-12-29T05:03:12;16.50;99.90
18733;DHT22;9495;51.210;2.934;2022-12-29T05:05:41;16.90;99.90
18733;DHT22;9495;51.210;2.934;2022-12-29T05:08:09;16.60;99.90
18733;DHT22;9495;51.210;2.934;2022-12-29T05:10:37;16.40;99.90
18733;DHT22;9495;51.210;2.934;2022-12-29T05:13:07;16.50;99.90
18733;DHT22;9495;51.210;2.934;2022-12-29T05:15:36;17.00;99.90
18733;DHT22;9495;51.210;2.934;2022-12-29T05:18:04;16.60;99.90
18733;DHT22;9495;51.210;2.934;2022-12-29T05:20:33;16.60;99.90
18733;DHT22;9495;51.210;2.934;2022-12-29T05:23:02;16.80;99.90
18733;DHT22;9495;51.210;2.934;2022-12-29T05:25:30;16.00;99.90
18733;DHT22;9495;51.210;2.934;2022-12-29T05:27:59;16.60;99.90
18733;DHT22;9495;51.210;2.934;2022-12-29T05:30:29;16.50;99.90
18733;DHT22;9495;51.210;2.934;2022-12-29T05:32:57;16.80;99.90
18733;DHT22;9495;51.210;2.934;2022-12-29T05:35:25;16.30;99.90
18733;DHT22;9495;51.210;2.934;2022-12-29T05:37:55;16.60;99.90
18733;DHT22;9495;51.210;2.934;2022-12-29T05:40:23;16.40;99.90
18733;DHT22;9495;51.210;2.934;2022-12-29T05:42:51;16.60;99.90
18733;DHT22;9495;51.210;2.934;2022-12-29T05:45:20;16.90;99.90
18733;DHT22;9495;51.210;2.934;2022-12-29T05:47:49;17.50;99.90
18733;DHT22;9495;51.210;2.934;2022-12-29T05:50:18;17.30;99.90
18733;DHT22;9495;51.210;2.934;2022-12-29T05:52:46;17.00;99.90
18733;DHT22;9495;51.210;2.934;2022-12-29T05:55:15;17.40;99.90
18733;DHT22;9495;51.210;2.934;2022-12-29T05:57:44;17.30;99.90
18733;DHT22;9495;51.210;2.934;2022-12-29T06:00:13;17.20;99.90
18733;DHT22;9495;51.210;2.934;2022-12-29T06:02:42;17.30;99.90
18733;DHT22;9495;51.210;2.934;2022-12-29T06:05:12;16.80;99.90
18733;DHT22;9495;51.210;2.934;2022-12-29T06:07:41;16.40;99.90
18733;DHT22;9495;51.210;2.934;2022-12-29T06:10:09;16.70;99.90
18733;DHT22;9495;51.210;2.934;2022-12-29T06:12:38;16.60;99.90
18733;DHT22;9495;51.210;2.934;2022-12-29T06:15:07;16.30;99.90
18733;DHT22;9495;51.210;2.934;2022-12-29T06:17:35;16.70;99.90
18733;DHT22;9495;51.210;2.934;2022-12-29T06:20:04;16.90;99.90
18733;DHT22;9495;51.210;2.934;2022-12-29T06:22:34;16.70;99.90
18733;DHT22;9495;51.210;2.934;2022-12-29T06:25:03;17.00;99.90
18733;DHT22;9495;51.210;2.934;2022-12-29T06:27:32;17.00;99.90
18733;DHT22;9495;51.210;2.934;2022-12-29T06:30:00;17.00;99.90
18733;DHT22;9495;51.210;2.934;2022-12-29T06:32:30;16.70;99.90
18733;DHT22;9495;51.210;2.934;2022-12-29T06:34:58;16.30;99.90
18733;DHT22;9495;51.210;2.934;2022-12-29T06:37:27;16.50;99.90
18733;DHT22;9495;51.210;2.934;2022-12-29T06:39:57;17.00;99.90
18733;DHT22;9495;51.210;2.934;2022-12-29T06:42:25;17.00;99.90
18733;DHT22;9495;51.210;2.934;2022-12-29T06:44:54;16.90;99.90
18733;DHT22;9495;51.210;2.934;2022-12-29T06:47:25;16.90;99.90
18733;DHT22;9495;51.210;2.934;2022-12-29T06:49:53;17.00;99.90
18733;DHT22;9495;51.210;2.934;2022-12-29T06:52:22;16.90;99.90
18733;DHT22;9495;51.210;2.934;2022-12-29T06:54:51;16.40;99.90
18733;DHT22;9495;51.210;2.934;2022-12-29T06:57:21;17.20;99.90
18733;DHT22;9495;51.210;2.934;2022-12-29T06:59:49;17.10;99.90
18733;DHT22;9495;51.210;2.934;2022-12-29T07:02:18;17.20;99.90
18733;DHT22;9495;51.210;2.934;2022-12-29T07:04:46;16.80;99.90
18733;DHT22;9495;51.210;2.934;2022-12-29T07:07:15;16.70;99.90
18733;DHT22;9495;51.210;2.934;2022-12-29T07:09:43;16.90;99.90
18733;DHT22;9495;51.210;2.934;2022-12-29T07:12:12;17.20;99.90
18733;DHT22;9495;51.210;2.934;2022-12-29T07:14:42;16.90;99.90
18733;DHT22;9495;51.210;2.934;2022-12-29T07:17:10;16.80;99.90
18733;DHT22;9495;51.210;2.934;2022-12-29T07:19:38;16.60;99.90
18733;DHT22;9495;51.210;2.934;2022-12-29T07:22:07;16.90;99.90
18733;DHT22;9495;51.210;2.934;2022-12-29T07:24:36;17.00;99.90
18733;DHT22;9495;51.210;2.934;2022-12-29T07:27:04;16.90;99.90
18733;DHT22;9495;51.210;2.934;2022-12-29T07:29:33;16.90;99.90
18733;DHT22;9495;51.210;2.934;2022-12-29T07:32:03;16.90;99.90
18733;DHT22;9495;51.210;2.934;2022-12-29T07:34:31;16.90;99.90
18733;DHT22;9495;51.210;2.934;2022-12-29T07:36:59;16.80;99.90
18733;DHT22;9495;51.210;2.934;2022-12-29T07:39:28;17.00;99.90
18733;DHT22;9495;51.210;2.934;2022-12-29T07:41:57;17.00;99.90
18733;DHT22;9495;51.210;2.934;2022-12-29T07:44:31;17.20;99.90
18733;DHT22;9495;51.210;2.934;2022-12-29T07:46:59;17.30;99.90
18733;DHT22;9495;51.210;2.934;2022-12-29T07:49:29;17.00;99.90
18733;DHT22;9495;51.210;2.934;2022-12-29T07:51:58;17.00;99.90
18733;DHT22;9495;51.210;2.934;2022-12-29T07:54:26;16.40;99.90
18733;DHT22;9495;51.210;2.934;2022-12-29T07:56:55;16.80;99.90
18733;DHT22;9495;51.210;2.934;2022-12-29T07:59:24;16.50;99.90
18733;DHT22;9495;51.210;2.934;2022-12-29T08:01:52;16.60;99.90
18733;DHT22;9495;51.210;2.934;2022-12-29T08:04:21;16.60;99.90
18733;DHT22;9495;51.210;2.934;2022-12-29T08:06:51;16.50;99.90
18733;DHT22;9495;51.210;2.934;2022-12-29T08:09:19;15.70;99.90
18733;DHT22;9495;51.210;2.934;2022-12-29T08:11:50;15.50;99.90
18733;DHT22;9495;51.210;2.934;2022-12-29T08:14:19;16.50;99.90
18733;DHT22;9495;51.210;2.934;2022-12-29T08:16:47;16.50;99.90
18733;DHT22;9495;51.210;2.934;2022-12-29T08:19:15;16.80;99.90
18733;DHT22;9495;51.210;2.934;2022-12-29T08:21:44;16.40;99.90
18733;DHT22;9495;51.210;2.934;2022-12-29T08:24:14;16.90;99.90
18733;DHT22;9495;51.210;2.934;2022-12-29T08:26:42;16.80;99.90
18733;DHT22;9495;51.210;2.934;2022-12-29T08:29:11;16.60;99.90
18733;DHT22;9495;51.210;2.934;2022-12-29T08:31:39;16.00;99.90
18733;DHT22;9495;51.210;2.934;2022-12-29T08:34:08;16.20;99.90
18733;DHT22;9495;51.210;2.934;2022-12-29T08:36:37;16.10;99.90
18733;DHT22;9495;51.210;2.934;2022-12-29T08:39:05;16.60;99.90
18733;DHT22;9495;51.210;2.934;2022-12-29T08:41:35;16.70;99.90
18733;DHT22;9495;51.210;2.934;2022-12-29T08:44:04;16.60;99.90
18733;DHT22;9495;51.210;2.934;2022-12-29T08:46:32;16.30;99.90
18733;DHT22;9495;51.210;2.934;2022-12-29T08:49:01;15.60;99.90
18733;DHT22;9495;51.210;2.934;2022-12-29T08:51:29;15.20;99.90
18733;DHT22;9495;51.210;2.934;2022-12-29T08:53:58;15.30;99.90
18733;DHT22;9495;51.210;2.934;2022-12-29T08:56:27;15.50;99.90
18733;DHT22;9495;51.210;2.934;2022-12-29T08:58:56;15.00;99.90
18733;DHT22;9495;51.210;2.934;2022-12-29T09:01:25;14.90;99.90
18733;DHT22;9495;51.210;2.934;2022-12-29T09:03:54;14.50;99.90
18733;DHT22;9495;51.210;2.934;2022-12-29T09:06:43;14.40;99.90
18733;DHT22;9495;51.210;2.934;2022-12-29T09:09:12;14.40;99.90
18733;DHT22;9495;51.210;2.934;2022-12-29T09:11:41;14.40;99.90
18733;DHT22;9495;51.210;2.934;2022-12-29T09:14:11;14.60;99.90
18733;DHT22;9495;51.210;2.934;2022-12-29T09:16:40;14.10;99.90
18733;DHT22;9495;51.210;2.934;2022-12-29T09:19:26;14.40;99.90
18733;DHT22;9495;51.210;2.934;2022-12-29T09:21:54;14.40;99.90
18733;DHT22;9495;51.210;2.934;2022-12-29T09:24:23;14.50;99.90
18733;DHT22;9495;51.210;2.934;2022-12-29T09:26:51;14.90;99.90
18733;DHT22;9495;51.210;2.934;2022-12-29T09:29:21;15.10;99.90
18733;DHT22;9495;51.210;2.934;2022-12-29T09:31:50;14.70;99.90
18733;DHT22;9495;51.210;2.934;2022-12-29T09:34:18;15.30;99.90
18733;DHT22;9495;51.210;2.934;2022-12-29T09:36:47;14.70;99.90
18733;DHT22;9495;51.210;2.934;2022-12-29T09:39:15;14.90;99.90
18733;DHT22;9495;51.210;2.934;2022-12-29T09:41:48;15.00;99.90
18733;DHT22;9495;51.210;2.934;2022-12-29T09:44:23;14.90;99.90
18733;DHT22;9495;51.210;2.934;2022-12-29T09:46:54;14.80;99.90
18733;DHT22;9495;51.210;2.934;2022-12-29T09:49:27;14.80;99.90
18733;DHT22;9495;51.210;2.934;2022-12-29T09:52:01;14.30;99.90
18733;DHT22;9495;51.210;2.934;2022-12-29T09:54:43;14.50;99.90
18733;DHT22;9495;51.210;2.934;2022-12-29T09:57:25;14.40;99.90
18733;DHT22;9495;51.210;2.934;2022-12-29T10:00:01;14.50;99.90
18733;DHT22;9495;51.210;2.934;2022-12-29T10:02:37;14.40;99.90
18733;DHT22;9495;51.210;2.934;2022-12-29T10:05:20;15.00;99.90
18733;DHT22;9495;51.210;2.934;2022-12-29T10:07:59;14.60;99.90
18733;DHT22;9495;51.210;2.934;2022-12-29T10:10:35;15.20;99.90
18733;DHT22;9495;51.210;2.934;2022-12-29T10:13:23;14.90;99.90
18733;DHT22;9495;51.210;2.934;2022-12-29T10:16:01;15.70;99.90
18733;DHT22;9495;51.210;2.934;2022-12-29T10:18:54;14.90;99.90
18733;DHT22;9495;51.210;2.934;2022-12-29T10:21:33;15.00;99.90
18733;DHT22;9495;51.210;2.934;2022-12-29T10:24:09;14.80;99.90
18733;DHT22;9495;51.210;2.934;2022-12-29T10:26:41;15.10;99.90
18733;DHT22;9495;51.210;2.934;2022-12-29T10:29:15;15.70;99.90
18733;DHT22;9495;51.210;2.934;2022-12-29T10:31:49;15.40;99.90
18733;DHT22;9495;51.210;2.934;2022-12-29T10:34:25;15.70;99.90
18733;DHT22;9495;51.210;2.934;2022-12-29T10:36:59;15.30;99.90
18733;DHT22;9495;51.210;2.934;2022-12-29T10:39:30;15.20;99.90
18733;DHT22;9495;51.210;2.934;2022-12-29T10:42:07;15.20;99.90
18733;DHT22;9495;51.210;2.934;2022-12-29T10:44:38;15.70;99.90
18733;DHT22;9495;51.210;2.934;2022-12-29T10:47:13;15.00;99.90
18733;DHT22;9495;51.210;2.934;2022-12-29T10:49:45;14.70;99.90
18733;DHT22;9495;51.210;2.934;2022-12-29T10:52:16;15.20;99.90
18733;DHT22;9495;51.210;2.934;2022-12-29T10:54:47;14.90;99.90
18733;DHT22;9495;51.210;2.934;2022-12-29T10:57:24;14.70;99.90
18733;DHT22;9495;51.210;2.934;2022-12-29T10:59:53;14.30;99.90
18733;DHT22;9495;51.210;2.934;2022-12-29T11:02:49;14.10;99.90
18733;DHT22;9495;51.210;2.934;2022-12-29T11:05:24;14.70;99.90
18733;DHT22;9495;51.210;2.934;2022-12-29T11:08:00;15.20;99.90
18733;DHT22;9495;51.210;2.934;2022-12-29T11:10:35;15.30;99.90
18733;DHT22;9495;51.210;2.934;2022-12-29T11:13:13;15.00;99.90
18733;DHT22;9495;51.210;2.934;2022-12-29T11:15:43;15.80;99.90
18733;DHT22;9495;51.210;2.934;2022-12-29T11:18:24;15.80;99.90
18733;DHT22;9495;51.210;2.934;2022-12-29T11:20:54;16.00;99.90
18733;DHT22;9495;51.210;2.934;2022-12-29T11:23:30;16.40;99.90
18733;DHT22;9495;51.210;2.934;2022-12-29T11:26:23;16.20;99.90
18733;DHT22;9495;51.210;2.934;2022-12-29T11:29:21;15.60;99.90
18733;DHT22;9495;51.210;2.934;2022-12-29T11:31:51;15.20;99.90
18733;DHT22;9495;51.210;2.934;2022-12-29T11:34:24;15.10;99.90
18733;DHT22;9495;51.210;2.934;2022-12-29T11:36:57;14.90;99.90
18733;DHT22;9495;51.210;2.934;2022-12-29T11:39:39;14.80;99.90
18733;DHT22;9495;51.210;2.934;2022-12-29T11:42:14;15.40;99.90
18733;DHT22;9495;51.210;2.934;2022-12-29T11:44:45;15.20;99.90
18733;DHT22;9495;51.210;2.934;2022-12-29T11:47:22;15.20;99.90
18733;DHT22;9495;51.210;2.934;2022-12-29T11:49:55;15.30;99.90
18733;DHT22;9495;51.210;2.934;2022-12-29T11:52:26;14.60;99.90
18733;DHT22;9495;51.210;2.934;2022-12-29T11:54:57;15.60;99.90
18733;DHT22;9495;51.210;2.934;2022-12-29T11:57:27;15.80;99.90
18733;DHT22;9495;51.210;2.934;2022-12-29T11:59:58;14.80;99.90
18733;DHT22;9495;51.210;2.934;2022-12-29T12:02:39;14.30;99.90
18733;DHT22;9495;51.210;2.934;2022-12-29T12:05:20;14.60;99.90
18733;DHT22;9495;51.210;2.934;2022-12-29T12:07:54;15.40;99.90
18733;DHT22;9495;51.210;2.934;2022-12-29T12:10:26;15.60;99.90
18733;DHT22;9495;51.210;2.934;2022-12-29T12:13:02;15.20;99.90
18733;DHT22;9495;51.210;2.934;2022-12-29T12:15:39;15.60;99.90
18733;DHT22;9495;51.210;2.934;2022-12-29T12:18:28;15.70;99.90
18733;DHT22;9495;51.210;2.934;2022-12-29T12:21:08;16.60;99.90
18733;DHT22;9495;51.210;2.934;2022-12-29T12:24:02;16.00;99.90
18733;DHT22;9495;51.210;2.934;2022-12-29T12:26:34;15.30;99.90
18733;DHT22;9495;51.210;2.934;2022-12-29T12:29:10;15.20;99.90
18733;DHT22;9495;51.210;2.934;2022-12-29T12:31:46;14.40;99.90
18733;DHT22;9495;51.210;2.934;2022-12-29T12:34:19;14.80;99.90
18733;DHT22;9495;51.210;2.934;2022-12-29T12:37:06;14.80;99.90
18733;DHT22;9495;51.210;2.934;2022-12-29T12:39:43;15.40;99.90
18733;DHT22;9495;51.210;2.934;2022-12-29T12:42:29;15.40;99.90
18733;DHT22;9495;51.210;2.934;2022-12-29T12:45:28;14.90;99.90
18733;DHT22;9495;51.210;2.934;2022-12-29T12:48:09;16.10;99.90
18733;DHT22;9495;51.210;2.934;2022-12-29T12:50:52;15.90;99.90
18733;DHT22;9495;51.210;2.934;2022-12-29T12:53:39;16.10;99.90
18733;DHT22;9495;51.210;2.934;2022-12-29T12:56:28;16.00;99.90
18733;DHT22;9495;51.210;2.934;2022-12-29T12:59:05;16.40;99.90
18733;DHT22;9495;51.210;2.934;2022-12-29T13:01:42;16.20;99.90
18733;DHT22;9495;51.210;2.934;2022-12-29T13:07:41;14.40;99.90
18733;DHT22;9495;51.210;2.934;2022-12-29T13:10:34;13.00;99.90
18733;DHT22;9495;51.210;2.934;2022-12-29T13:16:22;14.60;99.90
18733;DHT22;9495;51.210;2.934;2022-12-29T13:18:59;15.90;99.90
18733;DHT22;9495;51.210;2.934;2022-12-29T13:21:34;15.10;99.90
18733;DHT22;9495;51.210;2.934;2022-12-29T13:24:15;15.30;99.90
18733;DHT22;9495;51.210;2.934;2022-12-29T13:26:49;15.40;99.90
18733;DHT22;9495;51.210;2.934;2022-12-29T13:29:22;15.00;99.90
18733;DHT22;9495;51.210;2.934;2022-12-29T13:31:55;15.30;99.90
18733;DHT22;9495;51.210;2.934;2022-12-29T13:34:31;15.30;99.90
18733;DHT22;9495;51.210;2.934;2022-12-29T13:37:02;15.80;99.90
18733;DHT22;9495;51.210;2.934;2022-12-29T13:39:34;15.90;99.90
18733;DHT22;9495;51.210;2.934;2022-12-29T13:42:05;15.90;99.90
18733;DHT22;9495;51.210;2.934;2022-12-29T13:44:37;16.50;99.90
18733;DHT22;9495;51.210;2.934;2022-12-29T13:47:15;15.80;99.90
18733;DHT22;9495;51.210;2.934;2022-12-29T13:49:45;16.00;99.90
18733;DHT22;9495;51.210;2.934;2022-12-29T13:52:20;15.70;99.90
18733;DHT22;9495;51.210;2.934;2022-12-29T13:54:57;15.50;99.90
18733;DHT22;9495;51.210;2.934;2022-12-29T13:57:37;15.10;99.90
18733;DHT22;9495;51.210;2.934;2022-12-29T14:00:13;14.30;99.90
18733;DHT22;9495;51.210;2.934;2022-12-29T14:02:58;14.50;99.90
18733;DHT22;9495;51.210;2.934;2022-12-29T14:05:31;15.50;99.90
18733;DHT22;9495;51.210;2.934;2022-12-29T14:08:01;15.70;99.90
18733;DHT22;9495;51.210;2.934;2022-12-29T14:10:34;14.90;99.90
18733;DHT22;9495;51.210;2.934;2022-12-29T14:13:09;15.10;99.90
18733;DHT22;9495;51.210;2.934;2022-12-29T14:15:40;14.30;99.90
18733;DHT22;9495;51.210;2.934;2022-12-29T14:18:15;15.20;99.90
18733;DHT22;9495;51.210;2.934;2022-12-29T14:20:52;14.90;99.90
18733;DHT22;9495;51.210;2.934;2022-12-29T14:23:36;15.60;99.90
18733;DHT22;9495;51.210;2.934;2022-12-29T14:26:13;14.50;99.90
18733;DHT22;9495;51.210;2.934;2022-12-29T14:28:44;14.80;99.90
18733;DHT22;9495;51.210;2.934;2022-12-29T14:31:34;15.40;99.90
18733;DHT22;9495;51.210;2.934;2022-12-29T14:34:28;15.40;99.90
18733;DHT22;9495;51.210;2.934;2022-12-29T14:36:58;13.90;99.90
18733;DHT22;9495;51.210;2.934;2022-12-29T14:39:35;14.10;99.90
18733;DHT22;9495;51.210;2.934;2022-12-29T14:42:10;14.90;99.90
18733;DHT22;9495;51.210;2.934;2022-12-29T14:44:49;15.40;99.90
18733;DHT22;9495;51.210;2.934;2022-12-29T14:47:31;14.60;99.90
18733;DHT22;9495;51.210;2.934;2022-12-29T14:50:04;14.20;99.90
18733;DHT22;9495;51.210;2.934;2022-12-29T14:52:44;14.30;99.90
18733;DHT22;9495;51.210;2.934;2022-12-29T14:55:36;13.90;99.90
18733;DHT22;9495;51.210;2.934;2022-12-29T14:58:11;14.70;99.90
18733;DHT22;9495;51.210;2.934;2022-12-29T15:00:44;14.40;99.90
18733;DHT22;9495;51.210;2.934;2022-12-29T15:03:17;15.50;99.90
18733;DHT22;9495;51.210;2.934;2022-12-29T15:05:50;15.30;99.90
18733;DHT22;9495;51.210;2.934;2022-12-29T15:08:21;15.60;99.90
18733;DHT22;9495;51.210;2.934;2022-12-29T15:10:54;13.80;99.90
18733;DHT22;9495;51.210;2.934;2022-12-29T15:13:32;14.80;99.90
18733;DHT22;9495;51.210;2.934;2022-12-29T15:16:02;13.90;99.90
18733;DHT22;9495;51.210;2.934;2022-12-29T15:18:32;13.70;99.90
18733;DHT22;9495;51.210;2.934;2022-12-29T15:21:03;13.80;99.90
18733;DHT22;9495;51.210;2.934;2022-12-29T15:23:33;14.00;99.90
18733;DHT22;9495;51.210;2.934;2022-12-29T15:26:04;13.50;99.90
18733;DHT22;9495;51.210;2.934;2022-12-29T15:28:37;13.50;99.90
18733;DHT22;9495;51.210;2.934;2022-12-29T15:31:12;13.10;99.90
18733;DHT22;9495;51.210;2.934;2022-12-29T15:33:43;12.50;99.90
18733;DHT22;9495;51.210;2.934;2022-12-29T15:36:13;12.30;99.90
18733;DHT22;9495;51.210;2.934;2022-12-29T15:38:41;12.80;99.90
18733;DHT22;9495;51.210;2.934;2022-12-29T15:41:27;13.00;99.90
18733;DHT22;9495;51.210;2.934;2022-12-29T15:44:06;13.60;99.90
18733;DHT22;9495;51.210;2.934;2022-12-29T15:46:38;14.20;99.90
18733;DHT22;9495;51.210;2.934;2022-12-29T15:49:08;13.80;99.90
18733;DHT22;9495;51.210;2.934;2022-12-29T15:51:38;14.30;99.90
18733;DHT22;9495;51.210;2.934;2022-12-29T15:54:15;13.90;99.90
18733;DHT22;9495;51.210;2.934;2022-12-29T15:56:45;14.10;99.90
18733;DHT22;9495;51.210;2.934;2022-12-29T15:59:23;13.80;99.90
18733;DHT22;9495;51.210;2.934;2022-12-29T16:01:54;13.40;99.90
18733;DHT22;9495;51.210;2.934;2022-12-29T16:04:24;13.70;99.90
18733;DHT22;9495;51.210;2.934;2022-12-29T16:06:55;13.30;99.90
18733;DHT22;9495;51.210;2.934;2022-12-29T16:09:31;13.20;99.90
18733;DHT22;9495;51.210;2.934;2022-12-29T16:12:02;13.30;99.90
18733;DHT22;9495;51.210;2.934;2022-12-29T16:14:34;13.60;99.90
18733;DHT22;9495;51.210;2.934;2022-12-29T16:17:09;13.90;99.90
18733;DHT22;9495;51.210;2.934;2022-12-29T16:19:40;13.60;99.90
18733;DHT22;9495;51.210;2.934;2022-12-29T16:22:11;13.90;99.90
18733;DHT22;9495;51.210;2.934;2022-12-29T16:24:40;13.70;99.90
18733;DHT22;9495;51.210;2.934;2022-12-29T16:27:16;14.30;99.90
18733;DHT22;9495;51.210;2.934;2022-12-29T16:29:48;13.80;99.90
18733;DHT22;9495;51.210;2.934;2022-12-29T16:32:26;13.50;99.90
18733;DHT22;9495;51.210;2.934;2022-12-29T16:35:10;14.30;99.90
18733;DHT22;9495;51.210;2.934;2022-12-29T16:37:40;13.30;99.90